LPPS/PXO METAR and TAF weather

Enter ICAO airport designator
Station Type Date Time Source
LPPS METAR 2021/07/28 04:30 UTC NOAA

LPPS 280430Z 03009KT 9999 SCT015 BKN030 21/16 Q1017


Station Type Date Time Source
LPPS Decoded METAR 2021/07/28 04:30 UTC NOAA

Porto Santo, Portugal (LPPS) 33-04N 016-21W 82M
Jul 28, 2021 - 12:30 AM EDT / 2021.07.28 0430 UTC
Wind: from the NNE (030 degrees) at 10 MPH (9 KT):0
Visibility: greater than 7 mile(s):0
Sky conditions: mostly cloudy
Temperature: 69 F (21 C)
Dew Point: 60 F (16 C)
Relative Humidity: 73%
Pressure (altimeter): 30.03 in. Hg (1017 hPa)
ob: LPPS 280430Z 03009KT 9999 SCT015 BKN030 21/16 Q1017
cycle: 4

Station Type Date Time Source
LPPS TAF 2021/07/27 18:18 UTC NOAA

TAF LPPS 271700Z 2718/2824 03013KT 9999 SCT015 BKN030 PROB30
TEMPO 2718/2824 6000 -RA SCT006 BKN012

Example: see airport list